createdAt,value
2018-05-11T00:01:57.558Z,80.50
2018-05-11T00:04:26.669Z,79.90
2018-05-11T00:06:55.853Z,80.80
2018-05-11T00:09:25.830Z,79.80
2018-05-11T00:11:54.964Z,79.80
2018-05-11T00:14:24.047Z,80.70
2018-05-11T00:16:53.132Z,81.20
2018-05-11T00:19:22.972Z,80.40
2018-05-11T00:21:52.081Z,80.40
2018-05-11T00:24:21.268Z,80.60
2018-05-11T00:26:51.204Z,81.30
2018-05-11T00:29:21.079Z,80.80
2018-05-11T00:31:50.216Z,80.70
2018-05-11T00:34:19.333Z,80.90
2018-05-11T00:36:48.433Z,80.30
2018-05-11T00:39:17.510Z,78.90
2018-05-11T00:41:46.648Z,78.70
2018-05-11T00:44:15.752Z,79.00
2018-05-11T00:46:44.903Z,80.00
2018-05-11T00:49:14.785Z,79.00
2018-05-11T00:51:43.939Z,78.80
2018-05-11T00:54:13.015Z,79.70
2018-05-11T00:56:42.315Z,79.40
2018-05-11T00:59:13.043Z,81.00
2018-05-11T01:01:42.123Z,80.30
2018-05-11T01:04:11.203Z,80.40
2018-05-11T01:06:40.279Z,78.40
2018-05-11T01:09:09.391Z,77.60
2018-05-11T01:11:38.573Z,76.50
2018-05-11T01:14:08.454Z,76.40
2018-05-11T01:16:37.581Z,76.40
2018-05-11T01:19:06.658Z,75.40
2018-05-11T01:21:35.730Z,76.20
2018-05-11T01:24:04.847Z,76.20
2018-05-11T01:26:34.724Z,77.90
2018-05-11T01:29:03.903Z,77.90
2018-05-11T01:31:33.013Z,77.40
2018-05-11T01:34:02.152Z,77.10
2018-05-11T01:36:31.296Z,77.10
2018-05-11T01:39:00.472Z,76.60
2018-05-11T01:41:29.580Z,76.40
2018-05-11T01:43:58.664Z,76.20
2018-05-11T01:46:28.535Z,75.60
2018-05-11T01:48:57.696Z,75.60
2018-05-11T01:51:27.575Z,75.20
2018-05-11T01:53:56.663Z,75.20
2018-05-11T01:56:25.774Z,74.50
2018-05-11T01:58:54.944Z,75.00
2018-05-11T02:01:24.023Z,75.00
2018-05-11T02:03:53.192Z,75.50
2018-05-11T02:06:22.275Z,76.40
2018-05-11T02:08:51.416Z,77.10
2018-05-11T02:11:20.552Z,75.90
2018-05-11T02:13:49.681Z,76.70
2018-05-11T02:16:18.791Z,76.70
2018-05-11T02:18:47.896Z,76.80
2018-05-11T02:21:17.072Z,76.90
2018-05-11T02:23:46.213Z,76.60
2018-05-11T02:26:15.312Z,76.40
2018-05-11T02:28:44.410Z,76.40
2018-05-11T02:31:13.516Z,76.50
2018-05-11T02:33:42.668Z,75.20
2018-05-11T02:36:11.742Z,76.00
2018-05-11T02:38:40.914Z,75.80
2018-05-11T02:41:10.027Z,74.70
2018-05-11T02:43:39.169Z,74.70
2018-05-11T02:46:08.248Z,75.20
2018-05-11T02:48:37.380Z,76.00
2018-05-11T02:51:07.253Z,74.60
2018-05-11T02:53:36.366Z,74.60
2018-05-11T02:56:05.451Z,74.60
2018-05-11T02:58:34.589Z,74.50
2018-05-11T03:01:04.496Z,75.30
2018-05-11T03:03:33.630Z,75.30
2018-05-11T03:06:02.732Z,75.30
2018-05-11T03:08:32.576Z,76.00
2018-05-11T03:11:01.747Z,75.20
2018-05-11T03:13:30.864Z,74.70
2018-05-11T03:16:00.037Z,74.60
2018-05-11T03:18:29.214Z,74.80
2018-05-11T03:20:58.281Z,76.00
2018-05-11T03:23:27.359Z,76.40
2018-05-11T03:25:56.466Z,76.90
2018-05-11T03:28:25.772Z,76.40
2018-05-11T03:30:54.853Z,77.00
2018-05-11T03:33:23.959Z,77.30
2018-05-11T03:35:53.071Z,78.50
2018-05-11T03:38:22.180Z,77.60
2018-05-11T03:40:51.269Z,77.60
2018-05-11T03:43:21.181Z,77.30
2018-05-11T03:45:51.036Z,77.30
2018-05-11T03:48:20.111Z,77.30
2018-05-11T03:50:49.195Z,77.90
2018-05-11T03:53:18.275Z,78.60
2018-05-11T03:55:47.416Z,78.00
2018-05-11T03:58:16.495Z,78.10
2018-05-11T04:00:45.636Z,78.40
2018-05-11T04:03:32.987Z,77.90
2018-05-11T04:06:03.080Z,78.30
2018-05-11T04:08:49.868Z,78.50
2018-05-11T04:11:18.970Z,78.40
2018-05-11T04:13:48.043Z,78.90
2018-05-11T04:16:17.151Z,78.60
2018-05-11T04:18:46.223Z,77.80
2018-05-11T04:21:16.188Z,77.30
2018-05-11T04:23:45.267Z,77.20
2018-05-11T04:26:15.185Z,77.70
2018-05-11T04:28:45.039Z,77.30
2018-05-11T04:31:14.176Z,77.20
2018-05-11T04:33:43.255Z,76.90
2018-05-11T04:36:13.964Z,76.50
2018-05-11T04:38:43.049Z,76.50
2018-05-11T04:41:12.159Z,76.90
2018-05-11T04:43:42.007Z,76.40
2018-05-11T04:46:11.144Z,76.40
2018-05-11T04:48:41.060Z,76.30
2018-05-11T04:51:10.204Z,76.10
2018-05-11T04:53:39.352Z,75.20
2018-05-11T04:56:08.525Z,75.30
2018-05-11T04:58:37.636Z,75.00
2018-05-11T05:01:07.660Z,74.20
2018-05-11T05:03:37.575Z,74.70
2018-05-11T05:06:06.691Z,74.60
2018-05-11T05:08:36.625Z,74.20
2018-05-11T05:11:06.531Z,74.20
2018-05-11T05:13:35.711Z,74.20
2018-05-11T05:16:04.824Z,74.20
2018-05-11T05:18:33.907Z,74.70
2018-05-11T05:21:03.048Z,74.20
2018-05-11T05:23:32.158Z,73.80
2018-05-11T05:26:01.291Z,73.60
2018-05-11T05:28:30.401Z,73.20
2018-05-11T05:30:59.551Z,72.50
2018-05-11T05:33:29.418Z,72.70
2018-05-11T05:35:58.518Z,72.70
2018-05-11T05:38:27.656Z,72.90
2018-05-11T05:40:56.768Z,72.20
2018-05-11T05:43:25.917Z,71.90
2018-05-11T05:45:55.810Z,72.30
2018-05-11T05:48:25.158Z,72.20
2018-05-11T05:50:55.051Z,72.20
2018-05-11T05:53:24.931Z,72.50
2018-05-11T05:55:54.039Z,73.20
2018-05-11T05:58:23.261Z,71.70
2018-05-11T06:00:53.122Z,69.80
2018-05-11T06:03:22.232Z,69.80
2018-05-11T06:05:51.368Z,70.50
2018-05-11T06:08:20.468Z,71.10
2018-05-11T06:10:49.619Z,71.10
2018-05-11T06:13:19.485Z,72.40
2018-05-11T06:15:48.591Z,72.20
2018-05-11T06:18:17.667Z,71.90
2018-05-11T06:20:47.511Z,71.80
2018-05-11T06:23:16.644Z,71.70
2018-05-11T06:25:45.807Z,70.30
2018-05-11T06:28:15.676Z,70.60
2018-05-11T06:30:44.756Z,70.50
2018-05-11T06:33:14.624Z,71.10
2018-05-11T06:35:43.699Z,71.00
2018-05-11T06:38:13.592Z,72.20
2018-05-11T06:40:42.686Z,72.20
2018-05-11T06:43:11.779Z,70.40
2018-05-11T06:45:40.852Z,71.90
2018-05-11T06:48:09.969Z,70.90
2018-05-11T06:50:39.111Z,69.80
2018-05-11T06:53:08.207Z,69.80
2018-05-11T06:55:37.285Z,70.70
2018-05-11T06:58:07.214Z,72.10
2018-05-11T07:00:37.051Z,72.20
2018-05-11T07:03:06.998Z,72.00
2018-05-11T07:05:36.116Z,72.10
2018-05-11T07:08:05.420Z,72.20
2018-05-11T07:10:34.441Z,72.70
2018-05-11T07:13:03.530Z,72.40
2018-05-11T07:15:33.403Z,70.50
2018-05-11T07:18:02.545Z,70.40
2018-05-11T07:20:31.634Z,70.20
2018-05-11T07:23:00.707Z,70.40
2018-05-11T07:25:29.873Z,69.90
2018-05-11T07:27:59.004Z,69.90
2018-05-11T07:30:28.876Z,68.90
2018-05-11T07:32:58.024Z,68.90
2018-05-11T07:35:27.107Z,68.40
2018-05-11T07:37:56.236Z,68.80
2018-05-11T07:40:25.416Z,69.70
2018-05-11T07:42:54.529Z,69.20
2018-05-11T07:45:23.613Z,69.90
2018-05-11T07:47:52.716Z,68.90
2018-05-11T07:50:22.624Z,68.40
2018-05-11T07:52:51.835Z,68.40
2018-05-11T07:55:20.950Z,68.50
2018-05-11T07:57:50.035Z,67.40
2018-05-11T08:00:19.142Z,67.10
2018-05-11T08:02:48.288Z,66.00
2018-05-11T08:05:18.171Z,67.40
2018-05-11T08:07:47.253Z,67.30
2018-05-11T08:10:16.386Z,65.30
2018-05-11T08:12:45.473Z,65.50
2018-05-11T08:15:14.619Z,65.40
2018-05-11T08:17:43.731Z,63.10
2018-05-11T08:20:12.811Z,61.90
2018-05-11T08:22:41.946Z,60.90
2018-05-11T08:25:11.027Z,61.00
2018-05-11T08:27:40.158Z,62.00
2018-05-11T08:30:09.235Z,62.50
2018-05-11T08:32:39.398Z,62.10
2018-05-11T08:35:08.508Z,62.00
2018-05-11T08:37:37.620Z,61.80
2018-05-11T08:40:06.765Z,61.70
2018-05-11T08:42:35.843Z,61.10
2018-05-11T08:45:04.948Z,61.10
2018-05-11T08:47:34.060Z,61.20
2018-05-11T08:50:03.280Z,60.00
2018-05-11T08:52:32.363Z,60.30
2018-05-11T08:55:02.580Z,59.60
2018-05-11T08:57:31.702Z,59.50
2018-05-11T09:00:01.683Z,59.80
2018-05-11T09:02:30.820Z,59.20
2018-05-11T09:04:59.980Z,59.20
2018-05-11T09:07:29.069Z,59.10
2018-05-11T09:09:58.182Z,58.50
2018-05-11T09:12:28.088Z,58.70
2018-05-11T09:14:58.078Z,58.70
2018-05-11T09:17:27.180Z,57.70
2018-05-11T09:19:56.311Z,57.30
2018-05-11T09:22:25.944Z,57.40
2018-05-11T09:24:55.080Z,57.50
2018-05-11T09:27:24.192Z,57.50
2018-05-11T09:29:53.300Z,56.50
2018-05-11T09:32:22.374Z,55.90
2018-05-11T09:34:51.519Z,57.00
2018-05-11T09:37:20.590Z,57.10
2018-05-11T09:39:49.825Z,55.10
2018-05-11T09:42:18.783Z,54.80
2018-05-11T09:44:48.671Z,54.20
2018-05-11T09:47:17.778Z,54.20
2018-05-11T09:49:46.948Z,53.90
2018-05-11T09:52:16.024Z,53.90
2018-05-11T09:54:45.152Z,53.70
2018-05-11T09:57:15.059Z,52.70
2018-05-11T09:59:44.165Z,52.60
2018-05-11T10:02:13.281Z,53.10
2018-05-11T10:04:42.389Z,51.60
2018-05-11T10:07:11.554Z,52.00
2018-05-11T10:09:40.633Z,51.30
2018-05-11T10:12:10.499Z,50.30
2018-05-11T10:14:39.600Z,50.20
2018-05-11T10:17:08.706Z,50.40
2018-05-11T10:19:37.863Z,50.50
2018-05-11T10:22:06.977Z,50.30
2018-05-11T10:24:36.337Z,50.10
2018-05-11T10:27:05.419Z,50.00
2018-05-11T10:29:34.490Z,49.70
2018-05-11T10:32:03.568Z,50.10
2018-05-11T10:34:33.492Z,50.30
2018-05-11T10:37:02.619Z,50.20
2018-05-11T10:39:31.797Z,50.20
2018-05-11T10:42:01.676Z,51.20
2018-05-11T10:44:30.881Z,51.20
2018-05-11T10:46:59.992Z,52.40
2018-05-11T10:49:29.100Z,52.00
2018-05-11T10:51:58.208Z,52.50
2018-05-11T10:54:27.302Z,53.20
2018-05-11T10:56:56.800Z,52.30
2018-05-11T10:59:25.920Z,52.20
2018-05-11T11:01:55.829Z,53.20
2018-05-11T11:04:24.911Z,53.10
2018-05-11T11:06:54.032Z,53.60
2018-05-11T11:09:23.164Z,53.20
2018-05-11T11:11:52.373Z,54.80
2018-05-11T11:14:21.460Z,53.60
2018-05-11T11:16:50.583Z,54.20
2018-05-11T11:19:19.707Z,53.50
2018-05-11T11:21:48.787Z,53.60
2018-05-11T11:24:17.920Z,52.80
2018-05-11T11:26:47.076Z,53.70
2018-05-11T11:29:16.269Z,53.10
2018-05-11T11:31:46.112Z,53.80
2018-05-11T11:34:15.378Z,53.60
2018-05-11T11:36:45.154Z,53.80
2018-05-11T11:39:15.926Z,53.80
2018-05-11T11:41:45.085Z,53.70
2018-05-11T11:44:14.223Z,53.90
2018-05-11T11:46:44.088Z,52.70
2018-05-11T11:49:13.236Z,52.60
2018-05-11T11:51:42.344Z,52.70
2018-05-11T11:54:11.490Z,53.40
2018-05-11T11:56:40.579Z,52.20
2018-05-11T11:59:10.503Z,52.80
2018-05-11T12:01:39.681Z,52.60
2018-05-11T12:04:10.694Z,51.20
2018-05-11T12:06:39.803Z,51.00
2018-05-11T12:09:09.687Z,50.00
2018-05-11T12:11:38.785Z,50.00
2018-05-11T12:14:07.888Z,49.80
2018-05-11T12:16:36.993Z,49.70
2018-05-11T12:19:06.133Z,52.10
2018-05-11T12:21:35.240Z,50.40
2018-05-11T12:24:04.348Z,50.00
2018-05-11T12:26:33.416Z,50.60
2018-05-11T12:29:02.520Z,49.80
2018-05-11T12:31:31.663Z,49.70
2018-05-11T12:34:00.764Z,51.30
2018-05-11T12:36:29.852Z,51.10
2018-05-11T12:38:59.359Z,51.00
2018-05-11T12:41:29.218Z,51.10
2018-05-11T12:43:58.386Z,51.00
2018-05-11T12:46:27.458Z,51.50
2018-05-11T12:48:57.551Z,51.20
2018-05-11T12:51:26.719Z,51.90
2018-05-11T12:53:55.782Z,50.60
2018-05-11T12:56:24.897Z,50.70
2018-05-11T12:58:53.988Z,50.80
2018-05-11T13:01:23.911Z,51.60
2018-05-11T13:03:53.739Z,51.60
2018-05-11T13:06:23.573Z,51.00
2018-05-11T13:08:53.433Z,50.90
2018-05-11T13:11:22.661Z,50.80
2018-05-11T13:13:51.775Z,50.60
2018-05-11T13:16:20.840Z,51.00
2018-05-11T13:18:50.725Z,50.30
2018-05-11T13:21:20.649Z,50.90
2018-05-11T13:23:49.780Z,50.80
2018-05-11T13:26:18.888Z,51.70
2018-05-11T13:28:48.016Z,51.40
2018-05-11T13:31:17.095Z,50.90
2018-05-11T13:33:46.673Z,50.90
2018-05-11T13:36:15.843Z,50.80
2018-05-11T13:38:44.993Z,51.40
2018-05-11T13:41:14.169Z,50.30
2018-05-11T13:43:43.371Z,51.10
2018-05-11T13:46:12.455Z,51.20
2018-05-11T13:48:41.559Z,52.00
2018-05-11T13:51:10.631Z,52.20
2018-05-11T13:53:40.557Z,51.60
2018-05-11T13:56:10.484Z,51.60
2018-05-11T13:58:39.684Z,51.40
2018-05-11T14:01:08.824Z,51.50
2018-05-11T14:03:38.725Z,52.30
2018-05-11T14:06:07.824Z,52.20
2018-05-11T14:08:36.930Z,52.30
2018-05-11T14:11:05.998Z,52.00
2018-05-11T14:13:36.029Z,52.10
2018-05-11T14:16:05.116Z,52.10
2018-05-11T14:18:34.182Z,52.40
2018-05-11T14:21:03.764Z,52.90
2018-05-11T14:23:34.534Z,53.20
2018-05-11T14:26:03.668Z,53.10
2018-05-11T14:28:32.810Z,53.10
2018-05-11T14:31:01.952Z,51.70
2018-05-11T14:33:31.884Z,51.30
2018-05-11T14:36:00.963Z,51.30
2018-05-11T14:38:30.086Z,50.20
2018-05-11T14:40:59.168Z,49.90
2018-05-11T14:43:28.283Z,50.60
2018-05-11T14:45:58.900Z,49.70
2018-05-11T14:48:28.001Z,49.70
2018-05-11T14:50:57.083Z,48.90
2018-05-11T14:53:26.372Z,49.20
2018-05-11T14:55:55.472Z,49.70
2018-05-11T14:58:24.568Z,49.10
2018-05-11T15:00:53.715Z,48.70
2018-05-11T15:03:22.811Z,48.70
2018-05-11T15:05:51.870Z,48.20
2018-05-11T15:08:20.975Z,48.40
2018-05-11T15:10:50.860Z,49.60
2018-05-11T15:13:19.934Z,49.60
2018-05-11T15:15:49.067Z,49.70
2018-05-11T15:18:18.220Z,49.70
2018-05-11T15:20:48.773Z,49.60
2018-05-11T15:23:18.670Z,51.10
2018-05-11T15:25:47.797Z,51.00
2018-05-11T15:28:16.918Z,51.90
2018-05-11T15:30:46.100Z,51.20
2018-05-11T15:33:15.179Z,51.30
2018-05-11T15:35:44.358Z,51.90
2018-05-11T15:38:14.235Z,52.60
2018-05-11T15:40:43.316Z,52.50
2018-05-11T15:43:13.096Z,53.50
2018-05-11T15:45:42.181Z,54.30
2018-05-11T15:48:11.401Z,53.70
2018-05-11T15:50:40.490Z,53.70
2018-05-11T15:53:09.612Z,54.10
2018-05-11T15:55:38.694Z,54.10
2018-05-11T15:58:07.980Z,53.30
2018-05-11T16:00:37.104Z,54.30
2018-05-11T16:03:07.036Z,54.30
2018-05-11T16:05:36.976Z,54.80
2018-05-11T16:08:06.074Z,54.70
2018-05-11T16:10:35.920Z,54.50
2018-05-11T16:13:05.055Z,54.50
2018-05-11T16:15:34.143Z,55.00
2018-05-11T16:18:03.277Z,55.20
2018-05-11T16:20:33.702Z,54.90
2018-05-11T16:23:02.815Z,55.50
2018-05-11T16:25:31.976Z,55.50
2018-05-11T16:28:01.485Z,55.20
2018-05-11T16:30:30.979Z,55.50
2018-05-11T16:33:00.086Z,56.30
2018-05-11T16:35:29.243Z,56.20
2018-05-11T16:37:58.359Z,56.90
2018-05-11T16:40:27.450Z,57.20
2018-05-11T16:42:57.154Z,57.20
2018-05-11T16:45:26.246Z,57.90
2018-05-11T16:47:55.364Z,57.30
2018-05-11T16:50:24.663Z,58.00
2018-05-11T16:52:53.808Z,57.20
2018-05-11T16:55:22.893Z,57.80
2018-05-11T16:57:51.962Z,57.20
2018-05-11T17:00:22.612Z,57.30
2018-05-11T17:02:52.492Z,58.00
2018-05-11T17:05:21.570Z,58.00
2018-05-11T17:07:50.650Z,57.80
2018-05-11T17:10:19.753Z,57.20
2018-05-11T17:12:48.864Z,57.70
2018-05-11T17:15:17.983Z,58.00
2018-05-11T17:17:47.151Z,58.70
2018-05-11T17:20:16.267Z,58.70
2018-05-11T17:22:45.490Z,58.90
2018-05-11T17:25:14.520Z,62.10
2018-05-11T17:27:43.603Z,59.10
2018-05-11T17:30:12.727Z,59.50
2018-05-11T17:32:41.855Z,60.20
2018-05-11T17:35:10.931Z,60.40
2018-05-11T17:37:40.099Z,61.20
2018-05-11T17:40:09.975Z,62.30
2018-05-11T17:42:39.059Z,62.20
2018-05-11T17:45:08.163Z,61.80
2018-05-11T17:47:37.240Z,63.40
2018-05-11T17:50:06.348Z,61.40
2018-05-11T17:52:36.292Z,62.00
2018-05-11T17:55:06.292Z,63.40
2018-05-11T17:57:36.329Z,63.10
2018-05-11T18:00:05.445Z,63.10
2018-05-11T18:02:35.615Z,63.40
2018-05-11T18:05:04.793Z,63.50
2018-05-11T18:07:33.888Z,63.30
2018-05-11T18:10:03.032Z,63.60
2018-05-11T18:12:32.900Z,64.30
2018-05-11T18:15:02.057Z,64.30
2018-05-11T18:17:31.135Z,64.20
2018-05-11T18:20:00.288Z,64.30
2018-05-11T18:22:29.432Z,64.70
2018-05-11T18:24:58.539Z,64.50
2018-05-11T18:27:27.711Z,65.20
2018-05-11T18:29:57.536Z,64.90
2018-05-11T18:32:26.676Z,64.10
2018-05-11T18:34:56.640Z,66.10
2018-05-11T18:37:25.883Z,66.00
2018-05-11T18:39:55.585Z,63.70
2018-05-11T18:42:24.878Z,64.50
2018-05-11T18:44:54.776Z,64.30
2018-05-11T18:47:23.924Z,64.30
2018-05-11T18:49:53.032Z,65.90
2018-05-11T18:52:22.205Z,66.00
2018-05-11T18:54:51.291Z,65.80
2018-05-11T18:57:21.699Z,65.30
2018-05-11T18:59:50.808Z,65.90
2018-05-11T19:02:20.022Z,65.90
2018-05-11T19:04:49.132Z,66.60
2018-05-11T19:07:18.233Z,65.20
2018-05-11T19:09:48.100Z,65.80
2018-05-11T19:12:17.208Z,65.80
2018-05-11T19:14:46.307Z,65.80
2018-05-11T19:17:15.403Z,65.80
2018-05-11T19:19:44.491Z,65.80
2018-05-11T19:22:14.408Z,66.30
2018-05-11T19:24:44.269Z,66.20
2018-05-11T19:27:13.458Z,66.20
2018-05-11T19:29:43.349Z,66.90
2018-05-11T19:32:12.425Z,66.80
2018-05-11T19:34:41.531Z,65.70
2018-05-11T19:37:10.603Z,66.20
2018-05-11T19:39:39.692Z,66.70
2018-05-11T19:42:08.855Z,66.00
2018-05-11T19:44:38.742Z,65.10
2018-05-11T19:47:07.860Z,65.10
2018-05-11T19:49:36.940Z,65.70
2018-05-11T19:52:06.044Z,65.80
2018-05-11T19:54:35.148Z,66.20
2018-05-11T19:57:04.261Z,65.80
2018-05-11T19:59:33.597Z,65.80
2018-05-11T20:02:02.725Z,66.60
2018-05-11T20:04:31.812Z,66.40
2018-05-11T20:07:00.950Z,65.90
2018-05-11T20:09:30.079Z,66.00
2018-05-11T20:11:59.171Z,66.00
2018-05-11T20:14:28.276Z,65.20
2018-05-11T20:16:57.384Z,66.10
2018-05-11T20:19:26.836Z,66.10
2018-05-11T20:21:55.919Z,65.30
2018-05-11T20:24:25.024Z,65.60
2018-05-11T20:26:54.147Z,66.00
2018-05-11T20:29:23.338Z,65.70
2018-05-11T20:31:52.430Z,65.70
2018-05-11T20:34:21.548Z,66.00
2018-05-11T20:36:50.748Z,66.50
2018-05-11T20:39:19.853Z,66.30
2018-05-11T20:41:48.927Z,67.40
2018-05-11T20:44:18.071Z,67.20
2018-05-11T20:46:47.940Z,67.50
2018-05-11T20:49:17.837Z,67.80
2018-05-11T20:51:46.992Z,67.80
2018-05-11T20:54:16.091Z,67.60
2018-05-11T20:56:45.159Z,67.40
2018-05-11T20:59:14.304Z,67.70
2018-05-11T21:01:43.472Z,67.40
2018-05-11T21:04:13.468Z,68.00
2018-05-11T21:06:42.608Z,68.00
2018-05-11T21:09:12.533Z,69.00
2018-05-11T21:11:42.490Z,68.70
2018-05-11T21:14:11.648Z,68.70
2018-05-11T21:16:40.781Z,68.90
2018-05-11T21:19:09.926Z,69.00
2018-05-11T21:21:39.054Z,68.80
2018-05-11T21:24:08.248Z,68.80
2018-05-11T21:26:37.315Z,68.70
2018-05-11T21:29:06.397Z,69.20
2018-05-11T21:31:35.935Z,69.50
2018-05-11T21:34:05.033Z,70.70
2018-05-11T21:36:34.115Z,70.70
2018-05-11T21:39:03.239Z,69.70
2018-05-11T21:41:32.719Z,70.10
2018-05-11T21:44:03.530Z,69.60
2018-05-11T21:46:32.607Z,69.60
2018-05-11T21:49:01.836Z,69.30
2018-05-11T21:51:30.951Z,69.20
2018-05-11T21:54:00.061Z,69.30
2018-05-11T21:56:29.177Z,69.70
2018-05-11T21:58:58.288Z,69.30
2018-05-11T22:01:27.688Z,69.70
2018-05-11T22:03:56.822Z,70.10
2018-05-11T22:06:25.936Z,70.70
2018-05-11T22:08:55.090Z,70.70
2018-05-11T22:11:24.930Z,72.30
2018-05-11T22:13:54.773Z,73.30
2018-05-11T22:16:23.855Z,73.30
2018-05-11T22:18:53.733Z,73.00
2018-05-11T22:21:23.015Z,72.90
2018-05-11T22:23:52.097Z,72.60
2018-05-11T22:26:21.220Z,71.80
2018-05-11T22:28:51.119Z,71.90
2018-05-11T22:31:20.200Z,71.90
2018-05-11T22:33:49.349Z,72.00
2018-05-11T22:36:18.477Z,72.70
2018-05-11T22:38:48.352Z,71.70
2018-05-11T22:41:17.484Z,71.70
2018-05-11T22:43:46.559Z,71.60
2018-05-11T22:46:15.656Z,71.60
2018-05-11T22:48:44.797Z,72.30
2018-05-11T22:51:13.935Z,73.80
2018-05-11T22:53:43.337Z,74.40
2018-05-11T22:56:13.271Z,75.00
2018-05-11T22:58:42.343Z,75.00
2018-05-11T23:01:11.416Z,75.00
2018-05-11T23:04:04.268Z,75.40
2018-05-11T23:06:33.508Z,75.80
2018-05-11T23:09:03.397Z,78.00
2018-05-11T23:11:32.512Z,78.00
2018-05-11T23:14:01.620Z,78.00
2018-05-11T23:16:31.433Z,78.10
2018-05-11T23:19:00.553Z,78.40
2018-05-11T23:21:29.773Z,78.70
2018-05-11T23:23:58.855Z,79.10
2018-05-11T23:26:27.993Z,79.00
2018-05-11T23:28:57.148Z,79.00
2018-05-11T23:31:26.991Z,80.00
2018-05-11T23:33:56.905Z,80.40
2018-05-11T23:36:26.923Z,81.40
2018-05-11T23:38:56.129Z,81.40
2018-05-11T23:41:25.245Z,81.30
2018-05-11T23:43:54.326Z,81.70
2018-05-11T23:46:23.472Z,81.80
2018-05-11T23:48:52.555Z,82.10
2018-05-11T23:51:21.659Z,82.40
2018-05-11T23:53:50.737Z,82.50
2018-05-11T23:56:19.880Z,83.30
2018-05-11T23:58:48.990Z,83.30
